createdAt,value
2022-12-23T00:00:13.507Z,7.4
2022-12-23T00:01:20.784Z,7.4
2022-12-23T00:02:28.394Z,7.3
2022-12-23T00:03:37.259Z,7.3
2022-12-23T00:04:46.111Z,7.3
2022-12-23T00:05:54.384Z,7.3
2022-12-23T00:07:02.375Z,7.3
2022-12-23T00:08:10.316Z,7.3
2022-12-23T00:09:19.240Z,7.3
2022-12-23T00:10:26.519Z,7.3
2022-12-23T00:11:33.841Z,7.3
2022-12-23T00:12:42.814Z,7.3
2022-12-23T00:13:50.092Z,7.3
2022-12-23T00:14:57.412Z,7.3
2022-12-23T00:16:05.475Z,7.3
2022-12-23T00:17:23.370Z,7.3
2022-12-23T00:18:30.970Z,7.3
2022-12-23T00:19:39.240Z,7.3
2022-12-23T00:20:47.570Z,7.3
2022-12-23T00:21:54.953Z,7.3
2022-12-23T00:23:03.233Z,7.3
2022-12-23T00:24:11.506Z,7.3
2022-12-23T00:25:20.605Z,7.4
2022-12-23T00:26:27.882Z,7.4
2022-12-23T00:27:38.291Z,7.4
2022-12-23T00:28:46.539Z,7.3
2022-12-23T00:29:53.819Z,7.3
2022-12-23T00:31:02.482Z,7.3
2022-12-23T00:32:10.740Z,7.4
2022-12-23T00:33:19.856Z,7.4
2022-12-23T00:34:27.193Z,7.4
2022-12-23T00:35:35.458Z,7.4
2022-12-23T00:36:43.883Z,7.4
2022-12-23T00:37:51.248Z,7.4
2022-12-23T00:38:59.543Z,7.4
2022-12-23T00:40:07.825Z,7.4
2022-12-23T00:41:16.078Z,7.5
2022-12-23T00:42:24.336Z,7.4
2022-12-23T00:43:32.581Z,7.4
2022-12-23T00:44:41.536Z,7.4
2022-12-23T00:45:49.949Z,7.4
2022-12-23T00:46:58.404Z,7.4
2022-12-23T00:48:06.677Z,7.4
2022-12-23T00:49:14.956Z,7.4
2022-12-23T00:50:23.404Z,7.4
2022-12-23T00:51:32.350Z,7.4
2022-12-23T00:52:39.717Z,7.4
2022-12-23T00:53:48.049Z,7.4
2022-12-23T00:54:55.330Z,7.4
2022-12-23T00:56:02.654Z,7.4
2022-12-23T00:57:10.914Z,7.4
2022-12-23T00:58:18.928Z,7.4
2022-12-23T00:59:27.199Z,7.4
2022-12-23T01:00:35.817Z,7.4
2022-12-23T01:01:44.317Z,7.4
2022-12-23T01:02:54.067Z,7.4
2022-12-23T01:04:02.711Z,7.4
2022-12-23T01:05:11.100Z,7.4
2022-12-23T01:06:19.068Z,7.4
2022-12-23T01:07:26.354Z,7.4
2022-12-23T01:08:34.685Z,7.4
2022-12-23T01:09:42.013Z,7.4
2022-12-23T01:10:49.957Z,7.4
2022-12-23T01:11:58.231Z,7.4
2022-12-23T01:13:07.833Z,7.4
2022-12-23T01:14:16.091Z,7.4
2022-12-23T01:15:24.347Z,7.4
2022-12-23T01:16:33.375Z,7.4
2022-12-23T01:17:41.793Z,7.4
2022-12-23T01:18:50.045Z,7.4
2022-12-23T01:19:58.294Z,7.4
2022-12-23T01:21:07.257Z,7.4
2022-12-23T01:22:15.507Z,7.4
2022-12-23T01:23:23.795Z,7.4
2022-12-23T01:24:32.198Z,7.4
2022-12-23T01:25:40.519Z,7.4
2022-12-23T01:26:49.477Z,7.4
2022-12-23T01:27:56.785Z,7.4
2022-12-23T01:29:04.063Z,7.4
2022-12-23T01:30:13.076Z,7.4
2022-12-23T01:31:21.169Z,7.4
2022-12-23T01:32:30.303Z,7.4
2022-12-23T01:33:38.547Z,7.4
2022-12-23T01:34:47.498Z,7.4
2022-12-23T01:35:54.788Z,7.4
2022-12-23T01:37:02.056Z,7.4
2022-12-23T01:38:09.337Z,7.4
2022-12-23T01:39:17.609Z,7.4
2022-12-23T01:40:25.939Z,7.4
2022-12-23T01:41:34.247Z,7.4
2022-12-23T01:42:42.310Z,7.4
2022-12-23T01:43:50.609Z,7.4
2022-12-23T01:45:01.426Z,7.4
2022-12-23T01:46:09.930Z,7.4
2022-12-23T01:47:18.462Z,7.4
2022-12-23T01:48:26.764Z,7.4
2022-12-23T01:49:35.063Z,7.4
2022-12-23T01:50:43.318Z,7.4
2022-12-23T01:51:52.252Z,7.4
2022-12-23T01:53:08.459Z,7.4
2022-12-23T01:54:18.249Z,7.3
2022-12-23T01:55:25.578Z,7.4
2022-12-23T01:56:34.589Z,7.4
2022-12-23T01:57:42.961Z,7.4
2022-12-23T01:58:51.235Z,7.4
2022-12-23T01:59:59.544Z,7.4
2022-12-23T02:01:08.691Z,7.4
2022-12-23T02:02:17.553Z,7.4
2022-12-23T02:03:27.572Z,7.4
2022-12-23T02:04:36.771Z,7.4
2022-12-23T02:05:45.049Z,7.4
2022-12-23T02:06:54.027Z,7.4
2022-12-23T02:08:02.316Z,7.4
2022-12-23T02:09:10.595Z,7.4
2022-12-23T02:10:19.559Z,7.4
2022-12-23T02:11:28.493Z,7.4
2022-12-23T02:12:36.808Z,7.4
2022-12-23T02:13:45.110Z,7.4
2022-12-23T02:14:54.070Z,7.4
2022-12-23T02:16:02.349Z,7.4
2022-12-23T02:17:10.883Z,7.4
2022-12-23T02:18:19.232Z,7.4
2022-12-23T02:19:26.541Z,7.4
2022-12-23T02:20:34.809Z,7.4
2022-12-23T02:21:43.968Z,7.4
2022-12-23T02:22:52.590Z,7.4
2022-12-23T02:23:59.921Z,7.4
2022-12-23T02:25:07.217Z,7.4
2022-12-23T02:26:48.333Z,7.4
2022-12-23T02:27:56.777Z,7.3
2022-12-23T02:29:04.136Z,7.3
2022-12-23T02:30:13.807Z,7.3
2022-12-23T02:31:22.313Z,7.3
2022-12-23T02:32:30.565Z,7.3
2022-12-23T02:33:38.847Z,7.3
2022-12-23T02:34:46.859Z,7.3
2022-12-23T02:35:55.822Z,7.3
2022-12-23T02:37:03.124Z,7.3
2022-12-23T02:38:11.392Z,7.3
2022-12-23T02:39:18.682Z,7.3
2022-12-23T02:40:26.667Z,7.3
2022-12-23T02:41:34.932Z,7.3
2022-12-23T02:42:43.218Z,7.3
2022-12-23T02:43:51.529Z,7.3
2022-12-23T02:44:59.814Z,7.3
2022-12-23T02:46:08.209Z,7.3
2022-12-23T02:47:15.759Z,7.3
2022-12-23T02:48:24.010Z,7.2
2022-12-23T02:49:32.036Z,7.3
2022-12-23T02:50:40.363Z,7.3
2022-12-23T02:51:49.295Z,7.2
2022-12-23T02:52:58.239Z,7.3
2022-12-23T02:54:07.171Z,7.3
2022-12-23T02:55:14.483Z,7.3
2022-12-23T02:56:22.777Z,7.3
2022-12-23T02:57:31.066Z,7.3
2022-12-23T02:58:38.372Z,7.3
2022-12-23T02:59:46.671Z,7.3
2022-12-23T03:00:55.002Z,7.3
2022-12-23T03:02:03.602Z,7.3
2022-12-23T03:03:12.800Z,7.3
2022-12-23T03:04:20.514Z,7.3
2022-12-23T03:05:27.841Z,7.3
2022-12-23T03:06:36.133Z,7.3
2022-12-23T03:07:44.394Z,7.3
2022-12-23T03:08:51.687Z,7.3
2022-12-23T03:09:59.984Z,7.3
2022-12-23T03:11:08.928Z,7.3
2022-12-23T03:12:16.239Z,7.3
2022-12-23T03:13:24.509Z,7.3
2022-12-23T03:14:32.775Z,7.2
2022-12-23T03:15:40.325Z,7.3
2022-12-23T03:16:48.030Z,7.2
2022-12-23T03:17:56.285Z,7.3
2022-12-23T03:19:04.546Z,7.2
2022-12-23T03:20:11.828Z,7.2
2022-12-23T03:21:20.081Z,7.2
2022-12-23T03:22:29.023Z,7.2
2022-12-23T03:23:37.968Z,7.2
2022-12-23T03:24:46.938Z,7.2
2022-12-23T03:25:54.235Z,7.2
2022-12-23T03:27:02.509Z,7.2
2022-12-23T23:00:13.003Z,10.2
2022-12-23T23:01:21.413Z,10.1
2022-12-23T23:02:29.665Z,10.1
2022-12-23T23:03:38.142Z,10.2
2022-12-23T23:04:45.422Z,10.2
2022-12-23T23:05:54.535Z,10.2
2022-12-23T23:07:02.119Z,10.1
2022-12-23T23:08:10.385Z,10.1
2022-12-23T23:09:19.332Z,10.2
2022-12-23T23:10:26.625Z,10.1
2022-12-23T23:11:34.919Z,10.1
2022-12-23T23:12:42.897Z,10
2022-12-23T23:13:50.192Z,10
2022-12-23T23:14:57.464Z,10
2022-12-23T23:16:04.929Z,10
2022-12-23T23:17:13.380Z,10.1
2022-12-23T23:18:21.641Z,10.1
2022-12-23T23:19:29.580Z,10.1
2022-12-23T23:20:38.545Z,10
2022-12-23T23:21:45.855Z,10
2022-12-23T23:22:54.111Z,9.9
2022-12-23T23:24:01.421Z,9.9
2022-12-23T23:25:08.726Z,9.9
2022-12-23T23:26:16.979Z,9.9
2022-12-23T23:27:24.258Z,9.9
2022-12-23T23:28:32.549Z,9.8
2022-12-23T23:29:41.487Z,9.9
2022-12-23T23:30:49.380Z,9.9
2022-12-23T23:32:48.511Z,9.9
2022-12-23T23:33:56.678Z,9.8
2022-12-23T23:35:11.201Z,9.8
2022-12-23T23:36:19.633Z,9.7
2022-12-23T23:37:27.047Z,9.7
2022-12-23T23:38:34.334Z,9.7
2022-12-23T23:39:41.676Z,9.7
2022-12-23T23:40:49.003Z,9.7
2022-12-23T23:41:57.034Z,9.7
2022-12-23T23:43:05.982Z,9.7
2022-12-23T23:44:13.940Z,9.8
2022-12-23T23:45:21.254Z,9.8
2022-12-23T23:46:28.654Z,9.7
2022-12-23T23:47:36.818Z,9.9
2022-12-23T23:48:44.818Z,9.8
2022-12-23T23:49:52.168Z,9.8
2022-12-23T23:51:00.458Z,9.7
2022-12-23T23:52:08.710Z,9.7
2022-12-23T23:53:16.044Z,9.8
2022-12-23T23:54:25.033Z,9.7
2022-12-23T23:55:33.305Z,9.7
2022-12-23T23:56:41.561Z,9.7
2022-12-23T23:57:49.281Z,9.7
2022-12-23T23:58:57.269Z,9.7
